Mudcat — WCY8255 — position and weather

sailwx.info

Track history (hours):
 
Tides and Currents Weather Stations Pressure Air Temp Water Temp Dewpoint Dewpoint Depression Visibility Wind Speed Wind Dir Waves Ship Positions

Mudcat

More information available from US FCC via Universal Licensing System and Coast Guard Vessel Documentation Center.

Last reported at 2014-Jul-21 20:43 UTC. Time now 2014-Aug-01 01:50 UTC.
Position N 47°34' W 122°21'.
Warning: this ship's position is 10 days out of date.

Length 22 m; draft 2 m.

Type: Tug. MMSI: 366969750.

Date/timePositionNaut miles runAvg speedWind from/ knotsBaromVisibWave heightAir tempDewpointWater temp
2014-Jul-21 20:43N 47°34' W 122°21'0 1.4
2014-Jul-21 20:33N 47°34' W 122°21'0 0.0
2014-Jul-21 20:33N 47°34' W 122°21'1 2.8
2014-Jul-21 20:16N 47°35' W 122°22'3 7.4
2014-Jul-21 19:52N 47°37' W 122°24'3 7.9
2014-Jul-21 19:30N 47°40' W 122°27'2 4.5
2014-Jul-21 19:06N 47°40' W 122°24'0 0.4
2014-Jul-21 18:33N 47°40' W 122°24'0 0.0
2014-Jul-21 18:31N 47°40' W 122°24'2 1.1
2014-Jul-21 16:21N 47°39' W 122°20'0 0.0
2014-Jul-21 16:20N 47°39' W 122°20'0 0.0
2014-Jul-21 15:33N 47°39' W 122°20'  
Track history (hours):
 
Tides and Currents Weather Stations Pressure Air Temp Water Temp Dewpoint Dewpoint Depression Visibility Wind Speed Wind Dir Waves Ship Positions

Mudcat

More information available from US FCC via Universal Licensing System and Coast Guard Vessel Documentation Center.

Last reported at 2014-Jul-21 20:43 UTC. Time now 2014-Aug-01 01:50 UTC.
Position N 47°34' W 122°21'.
Warning: this ship's position is 10 days out of date.

Length 22 m; draft 2 m.

Type: Tug. MMSI: 366969750.

Date/timePositionNaut miles runAvg speedWind from/ knotsBaromVisibWave heightAir tempDewpointWater temp
2014-Jul-21 20:43N 47°34' W 122°21'0 1.4
2014-Jul-21 20:33N 47°34' W 122°21'0 0.0
2014-Jul-21 20:33N 47°34' W 122°21'1 2.8
2014-Jul-21 20:16N 47°35' W 122°22'3 7.4
2014-Jul-21 19:52N 47°37' W 122°24'3 7.9
2014-Jul-21 19:30N 47°40' W 122°27'2 4.5
2014-Jul-21 19:06N 47°40' W 122°24'0 0.4
2014-Jul-21 18:33N 47°40' W 122°24'0 0.0
2014-Jul-21 18:31N 47°40' W 122°24'2 1.1
2014-Jul-21 16:21N 47°39' W 122°20'0 0.0
2014-Jul-21 16:20N 47°39' W 122°20'0 0.0
2014-Jul-21 15:33N 47°39' W 122°20'  

Dump ship's entire track history